createdAt,value
2022-11-16T00:02:07.770Z,6.50
2022-11-16T00:04:34.310Z,6.46
2022-11-16T00:07:02.705Z,6.47
2022-11-16T00:09:31.855Z,6.52
2022-11-16T00:12:06.590Z,6.57
2022-11-16T00:14:35.237Z,6.60
2022-11-16T00:17:02.170Z,6.48
2022-11-16T00:19:29.136Z,6.24
2022-11-16T00:21:56.167Z,6.15
2022-11-16T00:24:23.535Z,6.07
2022-11-16T00:26:51.314Z,6.11
2022-11-16T00:29:23.561Z,6.16
2022-11-16T00:31:51.142Z,6.12
2022-11-16T00:34:18.331Z,6.09
2022-11-16T00:36:45.460Z,6.10
2022-11-16T00:39:14.298Z,6.25
2022-11-16T00:41:41.626Z,6.26
2022-11-16T00:44:08.597Z,6.27
2022-11-16T00:46:35.290Z,6.27
2022-11-16T00:49:01.675Z,6.33
2022-11-16T00:51:28.028Z,6.33
2022-11-16T00:53:54.957Z,6.32
2022-11-16T00:56:21.303Z,6.21
2022-11-16T00:58:47.679Z,6.16
2022-11-16T01:01:14.925Z,6.15
2022-11-16T01:03:41.397Z,6.17
2022-11-16T01:06:10.368Z,6.21
2022-11-16T01:08:38.560Z,6.15
2022-11-16T01:11:24.038Z,6.14
2022-11-16T01:13:51.321Z,6.05
2022-11-16T01:16:19.789Z,6.04
2022-11-16T01:18:50.851Z,6.13
2022-11-16T01:21:18.333Z,6.32
2022-11-16T01:23:44.981Z,6.40
2022-11-16T01:26:11.376Z,6.38
2022-11-16T01:28:38.046Z,6.39
2022-11-16T01:31:04.577Z,6.36
2022-11-16T01:33:31.058Z,6.17
2022-11-16T01:35:57.784Z,6.08
2022-11-16T01:38:29.364Z,6.08
2022-11-16T01:40:56.199Z,6.15
2022-11-16T01:43:25.204Z,6.16
2022-11-16T01:45:52.231Z,6.15
2022-11-16T01:48:28.030Z,6.19
2022-11-16T01:50:56.194Z,6.31
2022-11-16T01:53:23.279Z,6.42
2022-11-16T01:55:50.167Z,6.50
2022-11-16T01:58:22.933Z,6.47
2022-11-16T02:00:49.802Z,6.42
2022-11-16T02:03:18.621Z,6.43
2022-11-16T02:06:01.207Z,6.38
2022-11-16T02:09:06.908Z,6.26
2022-11-16T02:11:36.506Z,6.21
2022-11-16T02:14:17.919Z,6.27
2022-11-16T02:17:01.979Z,6.44
2022-11-16T02:20:10.309Z,6.52
2022-11-16T02:22:54.934Z,6.49
2022-11-16T02:25:46.073Z,6.35
2022-11-16T02:28:34.594Z,6.43
2022-11-16T02:31:05.802Z,6.47
2022-11-16T02:33:37.805Z,6.42
2022-11-16T02:36:09.242Z,6.42
2022-11-16T02:38:40.803Z,6.43
2022-11-16T02:41:14.509Z,6.40
2022-11-16T02:43:48.249Z,6.31
2022-11-16T02:46:38.787Z,6.30
2022-11-16T02:49:11.482Z,6.22
2022-11-16T02:51:40.385Z,6.21
2022-11-16T02:54:14.783Z,6.23
2022-11-16T02:57:13.973Z,6.22
2022-11-16T02:59:44.695Z,6.25
2022-11-16T03:02:26.576Z,6.25
2022-11-16T03:05:31.929Z,6.39
2022-11-16T03:08:09.222Z,6.50
2022-11-16T03:10:58.522Z,6.48
2022-11-16T03:13:30.448Z,6.50
2022-11-16T03:15:57.856Z,6.46
2022-11-16T03:18:28.934Z,6.38
2022-11-16T03:21:05.910Z,6.38
2022-11-16T03:23:32.434Z,6.50
2022-11-16T03:26:05.173Z,6.57
2022-11-16T03:28:39.303Z,6.60
2022-11-16T03:31:15.075Z,6.52
2022-11-16T03:33:48.555Z,6.26
2022-11-16T03:36:42.577Z,6.23
2022-11-16T03:39:17.111Z,6.21
2022-11-16T03:41:46.149Z,6.16
2022-11-16T03:44:14.279Z,6.17
2022-11-16T03:46:45.842Z,6.02
2022-11-16T03:49:12.367Z,6.03
2022-11-16T03:51:38.778Z,6.10
2022-11-16T03:54:05.870Z,6.12
2022-11-16T03:56:32.342Z,6.15
2022-11-16T03:58:58.707Z,6.07
2022-11-16T04:01:25.463Z,6.08
2022-11-16T04:03:51.797Z,6.13
2022-11-16T04:06:37.397Z,6.24
2022-11-16T04:09:22.470Z,6.39
2022-11-16T04:12:08.250Z,6.41
2022-11-16T04:14:53.365Z,6.40
2022-11-16T04:17:42.602Z,6.34
2022-11-16T04:20:29.873Z,6.33
2022-11-16T04:23:30.111Z,6.50
2022-11-16T04:25:57.305Z,6.47
2022-11-16T04:28:31.331Z,6.42
2022-11-16T04:31:19.737Z,6.33
2022-11-16T04:34:05.091Z,6.24
2022-11-16T04:36:50.278Z,6.30
2022-11-16T04:39:16.505Z,6.34
2022-11-16T04:42:01.706Z,6.35
2022-11-16T04:44:50.616Z,6.33
2022-11-16T04:47:17.333Z,6.52
2022-11-16T04:49:43.724Z,6.55
2022-11-16T04:52:10.349Z,6.56
2022-11-16T04:54:37.286Z,6.62
2022-11-16T04:57:03.662Z,6.61
2022-11-16T04:59:29.966Z,6.63
2022-11-16T05:02:08.737Z,6.75
2022-11-16T05:04:40.960Z,6.79
2022-11-16T05:07:10.910Z,6.34
2022-11-16T05:09:43.321Z,6.18
2022-11-16T05:12:11.287Z,6.14
2022-11-16T05:14:37.609Z,6.13
2022-11-16T05:17:04.475Z,6.08
2022-11-16T05:19:49.408Z,6.12
2022-11-16T05:22:15.794Z,6.19
2022-11-16T05:24:42.142Z,6.29
2022-11-16T05:27:12.770Z,6.33
2022-11-16T05:29:41.054Z,6.34
2022-11-16T05:32:08.123Z,6.37
2022-11-16T05:34:34.561Z,6.34
2022-11-16T05:37:00.966Z,6.38
2022-11-16T05:39:28.007Z,6.35
2022-11-16T05:41:54.686Z,6.28
2022-11-16T05:44:21.056Z,6.33
2022-11-16T05:46:48.061Z,6.40
2022-11-16T05:49:15.097Z,6.38
2022-11-16T05:51:43.762Z,6.43
2022-11-16T05:54:16.335Z,6.38
2022-11-16T05:56:42.902Z,6.38
2022-11-16T05:59:15.195Z,6.53
2022-11-16T06:01:43.143Z,6.38
2022-11-16T06:04:09.912Z,6.43
2022-11-16T06:06:36.525Z,6.40
2022-11-16T06:09:03.663Z,6.42
2022-11-16T06:11:35.501Z,6.39
2022-11-16T06:14:02.525Z,6.42
2022-11-16T06:16:29.367Z,6.43
2022-11-16T06:18:55.719Z,6.40
2022-11-16T06:21:22.071Z,6.44
2022-11-16T06:23:48.951Z,6.50
2022-11-16T06:26:15.334Z,6.62
2022-11-16T06:28:41.662Z,6.75
2022-11-16T06:31:08.351Z,6.77
2022-11-16T06:33:34.735Z,6.75
2022-11-16T06:36:01.073Z,6.58
2022-11-16T06:38:28.280Z,6.60
2022-11-16T06:40:57.672Z,6.60
2022-11-16T06:43:25.706Z,6.57
2022-11-16T06:45:57.648Z,6.58
2022-11-16T06:48:24.021Z,6.61
2022-11-16T06:50:52.524Z,6.60
2022-11-16T06:53:22.461Z,6.67
2022-11-16T06:55:53.070Z,6.73
2022-11-16T06:58:19.434Z,6.72
2022-11-16T07:00:45.756Z,6.76
2022-11-16T07:03:12.534Z,6.82
2022-11-16T07:05:41.745Z,6.85
2022-11-16T07:08:08.460Z,6.91
2022-11-16T07:10:35.345Z,6.86
2022-11-16T07:13:03.330Z,6.88
2022-11-16T07:15:30.033Z,7.09
2022-11-16T07:17:56.895Z,7.24
2022-11-16T07:20:23.915Z,7.27
2022-11-16T07:22:50.758Z,7.44
2022-11-16T07:25:17.073Z,7.49
2022-11-16T07:27:43.421Z,7.28
2022-11-16T07:30:10.215Z,7.21
2022-11-16T07:32:39.683Z,7.20
2022-11-16T07:35:06.942Z,7.11
2022-11-16T07:37:33.334Z,7.12
2022-11-16T07:39:59.652Z,7.20
2022-11-16T07:42:26.642Z,7.14
2022-11-16T07:44:53.037Z,7.15
2022-11-16T07:47:19.348Z,7.16
2022-11-16T07:49:45.677Z,7.19
2022-11-16T07:52:12.024Z,7.29
2022-11-16T07:54:38.433Z,7.32
2022-11-16T07:57:05.138Z,7.33
2022-11-16T07:59:31.488Z,7.47
2022-11-16T08:01:59.261Z,7.48
2022-11-16T08:04:26.180Z,7.53
2022-11-16T08:06:52.677Z,7.76
2022-11-16T08:09:19.455Z,7.68
2022-11-16T08:11:47.018Z,7.67
2022-11-16T08:14:13.853Z,7.85
2022-11-16T08:16:40.800Z,8.09
2022-11-16T08:19:07.114Z,7.89
2022-11-16T08:21:33.511Z,7.92
2022-11-16T08:23:59.894Z,7.87
2022-11-16T08:26:27.442Z,7.84
2022-11-16T08:28:55.561Z,7.88
2022-11-16T08:31:25.439Z,7.83
2022-11-16T08:33:52.863Z,7.97
2022-11-16T08:36:19.634Z,7.97
2022-11-16T08:38:47.537Z,7.95
2022-11-16T08:41:14.843Z,8.19
2022-11-16T08:43:42.801Z,8.28
2022-11-16T08:46:10.573Z,8.20
2022-11-16T08:48:38.130Z,8.19
2022-11-16T08:51:22.542Z,8.21
2022-11-16T08:53:49.945Z,8.27
2022-11-16T08:56:17.913Z,8.46
2022-11-16T08:58:46.653Z,8.77
2022-11-16T09:01:18.617Z,8.75
2022-11-16T09:03:46.563Z,9.00
2022-11-16T09:06:13.720Z,9.22
2022-11-16T09:08:42.574Z,9.81
2022-11-16T09:11:18.037Z,10.38
2022-11-16T09:13:46.025Z,10.70
2022-11-16T09:16:15.710Z,11.33
2022-11-16T09:18:48.649Z,11.87
2022-11-16T09:21:22.377Z,10.27
2022-11-16T09:23:49.856Z,10.16
2022-11-16T09:26:22.833Z,10.53
2022-11-16T09:29:07.745Z,11.01
2022-11-16T09:31:34.698Z,11.29
2022-11-16T09:34:01.393Z,12.93
2022-11-16T09:36:28.871Z,12.62
2022-11-16T09:39:23.645Z,12.87
2022-11-16T09:42:02.001Z,12.51
2022-11-16T09:45:14.638Z,11.95
2022-11-16T09:47:49.386Z,11.54
2022-11-16T09:50:28.853Z,11.20
2022-11-16T09:52:58.014Z,10.91
2022-11-16T09:55:49.617Z,10.80
2022-11-16T09:58:23.560Z,10.58
2022-11-16T10:00:57.186Z,10.41
2022-11-16T10:03:25.622Z,10.35
2022-11-16T10:06:01.362Z,10.34
2022-11-16T10:08:46.454Z,10.60
2022-11-16T10:11:19.269Z,10.85
2022-11-16T10:14:06.111Z,11.25
2022-11-16T10:17:24.832Z,11.43
2022-11-16T10:20:18.516Z,11.13
2022-11-16T10:23:18.860Z,10.98
2022-11-16T10:25:52.253Z,11.00
2022-11-16T10:29:01.050Z,11.06
2022-11-16T10:31:30.916Z,11.34
2022-11-16T10:33:59.332Z,11.26
2022-11-16T10:36:32.455Z,11.43
2022-11-16T10:39:00.635Z,11.68
2022-11-16T10:41:37.791Z,11.43
2022-11-16T10:44:24.624Z,11.70
2022-11-16T10:47:05.029Z,11.74
2022-11-16T10:49:58.296Z,12.04
2022-11-16T10:52:26.203Z,11.93
2022-11-16T10:54:53.339Z,12.08
2022-11-16T10:57:20.960Z,11.95
2022-11-16T10:59:54.215Z,12.07
2022-11-16T11:02:27.637Z,12.33
2022-11-16T11:05:17.804Z,12.74
2022-11-16T11:07:56.818Z,13.06
2022-11-16T11:10:28.910Z,13.33
2022-11-16T11:13:11.933Z,13.34
2022-11-16T11:15:40.814Z,13.12
2022-11-16T11:18:27.319Z,13.30
2022-11-16T11:21:13.651Z,13.25
2022-11-16T11:23:52.737Z,13.47
2022-11-16T11:26:36.502Z,12.93
2022-11-16T11:29:23.550Z,12.49
2022-11-16T11:31:56.039Z,11.98
2022-11-16T11:34:26.662Z,11.87
2022-11-16T11:37:02.798Z,11.39
2022-11-16T11:39:35.325Z,11.01
2022-11-16T11:42:22.970Z,10.97
2022-11-16T11:44:57.394Z,10.97
2022-11-16T11:50:33.254Z,11.04
2022-11-16T11:53:07.715Z,11.27
2022-11-16T11:55:34.945Z,11.36
2022-11-16T11:58:03.571Z,11.51
2022-11-16T12:00:44.281Z,11.42
2022-11-16T12:03:44.165Z,11.58
2022-11-16T12:06:19.854Z,11.68
2022-11-16T12:09:07.414Z,11.59
2022-11-16T12:11:41.404Z,11.83
2022-11-16T12:14:49.387Z,11.70
2022-11-16T12:17:16.060Z,12.03
2022-11-16T12:19:45.358Z,12.20
2022-11-16T12:22:31.763Z,11.93
2022-11-16T12:25:16.897Z,11.99
2022-11-16T12:27:59.022Z,12.48
2022-11-16T12:30:26.045Z,12.16
2022-11-16T12:33:26.349Z,12.23
2022-11-16T12:36:08.210Z,12.34
2022-11-16T12:38:49.159Z,12.20
2022-11-16T12:41:45.546Z,11.73
2022-11-16T12:44:17.133Z,11.82
2022-11-16T12:47:23.094Z,11.80
2022-11-16T12:50:01.270Z,11.77
2022-11-16T12:52:49.235Z,11.48
2022-11-16T12:55:52.679Z,11.43
2022-11-16T12:58:23.265Z,11.34
2022-11-16T13:00:57.267Z,11.50
2022-11-16T13:03:40.785Z,11.50
2022-11-16T13:06:12.779Z,11.86
2022-11-16T13:08:54.269Z,11.65
2022-11-16T13:11:32.841Z,11.29
2022-11-16T13:14:03.960Z,11.10
2022-11-16T13:16:31.009Z,11.19
2022-11-16T13:18:59.821Z,11.29
2022-11-16T13:21:44.499Z,11.32
2022-11-16T13:24:27.551Z,11.40
2022-11-16T13:27:17.902Z,11.14
2022-11-16T13:29:57.475Z,10.92
2022-11-16T13:32:43.384Z,11.04
2022-11-16T13:35:18.017Z,10.97
2022-11-16T13:37:49.077Z,10.88
2022-11-16T13:40:33.325Z,11.15
2022-11-16T13:43:11.845Z,10.99
2022-11-16T13:45:50.748Z,10.82
2022-11-16T13:48:26.874Z,10.70
2022-11-16T13:50:56.702Z,10.66
2022-11-16T13:56:16.113Z,10.90
2022-11-16T13:59:00.774Z,10.95
2022-11-16T14:01:58.272Z,11.02
2022-11-16T14:04:39.899Z,11.05
2022-11-16T14:07:29.300Z,10.89
2022-11-16T14:09:55.850Z,10.65
2022-11-16T14:12:37.794Z,10.48
2022-11-16T14:15:25.691Z,10.49
2022-11-16T14:17:58.205Z,10.36
2022-11-16T14:20:34.397Z,10.42
2022-11-16T14:23:32.181Z,10.39
2022-11-16T14:26:13.750Z,10.33
2022-11-16T14:29:12.752Z,10.09
2022-11-16T14:32:18.861Z,9.92
2022-11-16T14:34:48.087Z,9.88
2022-11-16T14:37:24.348Z,9.88
2022-11-16T14:39:53.537Z,9.88
2022-11-16T14:42:23.942Z,9.79
2022-11-16T14:44:58.330Z,9.74
2022-11-16T14:47:26.942Z,9.72
2022-11-16T14:49:56.336Z,9.75
2022-11-16T14:52:35.959Z,9.62
2022-11-16T14:55:07.170Z,9.46
2022-11-16T14:57:33.813Z,9.20
2022-11-16T15:00:21.302Z,9.13
2022-11-16T15:02:57.606Z,9.08
2022-11-16T15:05:33.249Z,9.21
2022-11-16T15:08:01.295Z,9.28
2022-11-16T15:10:29.077Z,9.34
2022-11-16T15:12:56.970Z,9.15
2022-11-16T15:15:26.722Z,8.97
2022-11-16T15:18:07.827Z,8.97
2022-11-16T15:20:37.969Z,8.95
2022-11-16T15:23:05.874Z,9.02
2022-11-16T15:25:40.913Z,8.99
2022-11-16T15:28:30.550Z,8.72
2022-11-16T15:30:59.960Z,8.69
2022-11-16T15:33:29.321Z,8.76
2022-11-16T15:35:56.346Z,8.62
2022-11-16T15:38:29.333Z,8.53
2022-11-16T15:41:00.700Z,8.40
2022-11-16T15:43:38.183Z,8.27
2022-11-16T15:46:13.811Z,8.07
2022-11-16T15:48:41.167Z,7.85
2022-11-16T15:51:15.113Z,7.73
2022-11-16T15:53:45.949Z,7.57
2022-11-16T15:56:14.742Z,7.59
2022-11-16T15:58:42.596Z,7.48
2022-11-16T16:01:11.360Z,7.37
2022-11-16T16:03:38.467Z,7.24
2022-11-16T16:06:06.000Z,7.08
2022-11-16T16:08:35.650Z,7.10
2022-11-16T16:11:25.475Z,7.11
2022-11-16T16:13:59.372Z,7.03
2022-11-16T16:16:33.051Z,6.96
2022-11-16T16:19:05.145Z,6.98
2022-11-16T16:21:46.579Z,6.86
2022-11-16T16:24:49.817Z,6.73
2022-11-16T16:27:27.724Z,6.52
2022-11-16T16:29:58.850Z,6.38
2022-11-16T16:32:26.578Z,6.30
2022-11-16T16:34:55.414Z,6.14
2022-11-16T16:37:22.533Z,6.01
2022-11-16T16:39:48.935Z,6.00
2022-11-16T16:42:17.399Z,5.89
2022-11-16T16:44:45.702Z,5.86
2022-11-16T16:47:13.530Z,5.78
2022-11-16T16:49:40.049Z,5.67
2022-11-16T16:52:07.033Z,5.52
2022-11-16T16:54:34.194Z,5.54
2022-11-16T16:57:02.274Z,5.48
2022-11-16T16:59:30.447Z,5.31
2022-11-16T17:01:58.473Z,5.08
2022-11-16T17:04:25.065Z,5.00
2022-11-16T17:06:53.682Z,4.89
2022-11-16T17:09:20.555Z,4.76
2022-11-16T17:11:47.640Z,4.55
2022-11-16T17:14:14.489Z,4.39
2022-11-16T17:16:40.965Z,4.28
2022-11-16T17:19:07.696Z,4.21
2022-11-16T17:21:34.428Z,4.25
2022-11-16T17:24:01.368Z,4.21
2022-11-16T17:26:29.313Z,4.21
2022-11-16T17:28:56.924Z,4.24
2022-11-16T17:31:25.492Z,4.19
2022-11-16T17:33:52.514Z,4.11
2022-11-16T17:36:19.394Z,4.10
2022-11-16T17:38:46.261Z,3.94
2022-11-16T17:41:17.902Z,3.77
2022-11-16T17:43:46.480Z,3.74
2022-11-16T17:46:15.555Z,3.72
2022-11-16T17:48:43.538Z,3.75
2022-11-16T17:51:15.902Z,3.73
2022-11-16T17:53:44.288Z,3.70
2022-11-16T17:56:15.098Z,3.70
2022-11-16T17:58:41.726Z,3.72
2022-11-16T18:01:08.293Z,3.55
2022-11-16T18:03:39.209Z,3.36
2022-11-16T18:06:13.123Z,3.36
2022-11-16T18:08:41.318Z,3.29
2022-11-16T18:11:16.428Z,3.22
2022-11-16T18:13:44.034Z,3.26
2022-11-16T18:16:18.181Z,3.18
2022-11-16T18:18:45.917Z,3.12
2022-11-16T18:21:20.067Z,3.09
2022-11-16T18:23:47.763Z,3.10
2022-11-16T18:26:18.626Z,3.04
2022-11-16T18:28:45.411Z,3.00
2022-11-16T18:31:16.341Z,3.02
2022-11-16T18:33:43.684Z,3.00
2022-11-16T18:36:12.027Z,3.07
2022-11-16T18:38:39.216Z,2.91
2022-11-16T18:41:11.406Z,2.69
2022-11-16T18:43:56.410Z,2.70
2022-11-16T18:46:25.562Z,2.37
2022-11-16T18:48:52.488Z,2.17
2022-11-16T18:51:21.007Z,2.08
2022-11-16T18:53:47.684Z,2.07
2022-11-16T18:56:14.788Z,2.13
2022-11-16T18:58:50.229Z,2.22
2022-11-16T19:01:18.990Z,2.27
2022-11-16T19:03:46.131Z,2.29
2022-11-16T19:06:13.085Z,2.32
2022-11-16T19:08:41.222Z,2.31
2022-11-16T19:11:13.070Z,2.35
2022-11-16T19:13:41.122Z,2.38
2022-11-16T19:16:09.243Z,2.48
2022-11-16T19:18:36.868Z,2.49
2022-11-16T19:21:09.129Z,2.47
2022-11-16T19:23:40.874Z,2.42
2022-11-16T19:26:07.463Z,2.43
2022-11-16T19:28:38.396Z,2.37
2022-11-16T19:31:15.681Z,2.49
2022-11-16T19:33:43.132Z,2.59
2022-11-16T19:36:10.908Z,2.51
2022-11-16T19:38:38.550Z,2.42
2022-11-16T19:41:06.043Z,2.39
2022-11-16T19:43:33.585Z,2.29
2022-11-16T19:46:05.707Z,2.19
2022-11-16T19:48:33.117Z,2.14
2022-11-16T19:51:08.149Z,2.05
2022-11-16T19:53:35.976Z,1.96
2022-11-16T19:56:03.648Z,1.92
2022-11-16T19:58:30.915Z,1.90
2022-11-16T20:01:06.283Z,1.83
2022-11-16T20:03:33.275Z,1.84
2022-11-16T20:06:05.347Z,1.80
2022-11-16T20:08:32.313Z,1.85
2022-11-16T20:10:58.688Z,1.93
2022-11-16T20:13:25.017Z,1.87
2022-11-16T20:15:51.947Z,1.81
2022-11-16T20:18:18.301Z,1.78
2022-11-16T20:20:44.615Z,1.79
2022-11-16T20:23:15.095Z,1.88
2022-11-16T20:25:41.507Z,1.91
2022-11-16T20:28:07.819Z,1.81
2022-11-16T20:30:34.514Z,1.82
2022-11-16T20:33:00.828Z,1.84
2022-11-16T20:35:27.141Z,1.85
2022-11-16T20:37:54.001Z,1.89
2022-11-16T20:40:20.309Z,1.94
2022-11-16T20:42:46.923Z,1.97
2022-11-16T20:45:13.673Z,1.99
2022-11-16T20:47:39.984Z,1.96
2022-11-16T20:50:06.874Z,1.98
2022-11-16T20:52:33.669Z,1.98
2022-11-16T20:55:00.625Z,1.93
2022-11-16T20:57:27.397Z,1.88
2022-11-16T20:59:53.698Z,1.71
2022-11-16T21:02:20.034Z,1.55
2022-11-16T21:04:46.894Z,1.47
2022-11-16T21:07:13.979Z,1.45
2022-11-16T21:09:59.209Z,1.50
2022-11-16T21:12:43.941Z,1.29
2022-11-16T21:15:11.035Z,1.19
2022-11-16T21:17:37.350Z,1.23
2022-11-16T21:20:26.352Z,1.25
2022-11-16T21:22:50.778Z,1.29
2022-11-16T21:25:17.094Z,1.35
2022-11-16T21:27:43.445Z,1.27
2022-11-16T21:30:10.295Z,1.25
2022-11-16T21:32:36.606Z,1.27
2022-11-16T21:35:03.012Z,1.28
2022-11-16T21:37:30.178Z,1.32
2022-11-16T21:39:56.493Z,1.34
2022-11-16T21:42:22.863Z,1.45
2022-11-16T21:44:49.813Z,1.47
2022-11-16T21:47:20.437Z,1.47
2022-11-16T21:50:08.677Z,1.53
2022-11-16T21:52:34.519Z,1.62
2022-11-16T21:55:00.830Z,1.71
2022-11-16T21:57:27.369Z,1.70
2022-11-16T21:59:54.193Z,1.69
2022-11-16T22:02:20.511Z,1.63
2022-11-16T22:05:05.249Z,1.55
2022-11-16T22:07:36.542Z,1.50
2022-11-16T22:10:08.961Z,1.42
2022-11-16T22:12:35.705Z,1.38
2022-11-16T22:15:03.693Z,1.39
2022-11-16T22:17:30.452Z,1.44
2022-11-16T22:19:56.892Z,1.60
2022-11-16T22:22:23.779Z,1.70
2022-11-16T22:24:50.750Z,1.78
2022-11-16T22:27:18.282Z,1.81
2022-11-16T22:29:44.617Z,1.87
2022-11-16T22:32:11.594Z,1.84
2022-11-16T22:34:37.978Z,1.87
2022-11-16T22:37:04.343Z,1.90
2022-11-16T22:39:30.873Z,1.85
2022-11-16T22:41:57.274Z,1.84
2022-11-16T22:44:23.601Z,1.83
2022-11-16T22:46:49.937Z,1.87
2022-11-16T22:49:16.470Z,1.91
2022-11-16T22:51:42.854Z,1.80
2022-11-16T22:54:11.290Z,1.88
2022-11-16T22:56:38.201Z,1.88
2022-11-16T22:59:05.683Z,1.85
2022-11-16T23:01:32.778Z,1.92
2022-11-16T23:03:59.616Z,1.94
2022-11-16T23:06:26.005Z,1.97
2022-11-16T23:08:52.596Z,1.98
2022-11-16T23:11:40.545Z,1.97
2022-11-16T23:14:28.694Z,1.95
2022-11-16T23:16:55.525Z,1.76
2022-11-16T23:19:40.925Z,1.75
2022-11-16T23:22:27.387Z,1.70
2022-11-16T23:25:12.134Z,1.71
2022-11-16T23:27:44.018Z,1.84
2022-11-16T23:30:13.093Z,1.89
2022-11-16T23:32:40.504Z,1.93
2022-11-16T23:35:07.957Z,2.05
2022-11-16T23:37:34.309Z,2.09
2022-11-16T23:40:00.735Z,2.18
2022-11-16T23:42:45.841Z,2.26
2022-11-16T23:45:12.141Z,2.33
2022-11-16T23:47:38.458Z,2.42
2022-11-16T23:50:05.782Z,2.42
2022-11-16T23:52:32.093Z,2.48
2022-11-16T23:54:58.399Z,2.54
2022-11-16T23:57:25.169Z,2.19
2022-11-16T23:59:51.854Z,2.02
